NJE194R LEPA-LPCS
Flight info
| Callsign | NJE194R |
|---|---|
| Flight time | 1h 37m |
| Altitude | 45000 |
| Route | EPAMA N733 ARGOR DCT NASOS/N0493F430 DCT CCS/N0496F450 DCT UPULO |
| Aircraft | C750/M-SBDE3FGHRWXY/S |
Departure
| Time | 2026-05-07 19:58 |
|---|---|
| Airport | Palma de Mallorca Airport (LEPA) |
Arrival
| Time | 2026-05-07 21:35 |
|---|---|
| Airport | Cascais Airport (LPCS) |
| Time | Latitude | Longitude | Altitude | Speed | Heading |
|---|---|---|---|---|---|
| 2026-05-07 19:37 | 39.54223 | 2.72503 | 27 ft | 0 kts | 328° |
| 2026-05-07 19:50 | 39.54221 | 2.72504 | 27 ft | 2 kts | 328° |
| 2026-05-07 19:50 | 39.54204 | 2.72518 | 27 ft | 3 kts | 329° |
| 2026-05-07 19:50 | 39.54187 | 2.72521 | 27 ft | 4 kts | 47° |
| 2026-05-07 19:51 | 39.54173 | 2.72495 | 27 ft | 3 kts | 58° |
| 2026-05-07 19:51 | 39.54171 | 2.72492 | 27 ft | 0 kts | 58° |
| 2026-05-07 19:54 | 39.54174 | 2.72497 | 27 ft | 2 kts | 58° |
| 2026-05-07 19:55 | 39.54193 | 2.72539 | 27 ft | 8 kts | 60° |
| 2026-05-07 19:55 | 39.54196 | 2.72604 | 27 ft | 9 kts | 71° |
| 2026-05-07 19:55 | 39.54236 | 2.72693 | 27 ft | 14 kts | 59° |
| 2026-05-07 19:55 | 39.54273 | 2.72777 | 27 ft | 10 kts | 60° |
| 2026-05-07 19:56 | 39.54272 | 2.72870 | 27 ft | 6 kts | 123° |
| 2026-05-07 19:56 | 39.54246 | 2.72888 | 27 ft | 7 kts | 153° |
| 2026-05-07 19:56 | 39.54233 | 2.72949 | 27 ft | 10 kts | 58° |
| 2026-05-07 19:56 | 39.54254 | 2.73034 | 27 ft | 9 kts | 114° |
| 2026-05-07 19:57 | 39.54227 | 2.73105 | 27 ft | 10 kts | 103° |
| 2026-05-07 19:57 | 39.54218 | 2.73222 | 27 ft | 16 kts | 95° |
| 2026-05-07 19:57 | 39.54221 | 2.73364 | 27 ft | 16 kts | 64° |
| 2026-05-07 19:57 | 39.54354 | 2.73650 | 27 ft | 84 kts | 59° |
| 2026-05-07 19:58 | 39.54797 | 2.74593 | 143 ft | 139 kts | 59° |
| 2026-05-07 19:58 | 39.55298 | 2.75702 | 657 ft | 150 kts | 58° |
| 2026-05-07 19:58 | 39.55874 | 2.76901 | 1202 ft | 162 kts | 56° |
| 2026-05-07 19:58 | 39.56507 | 2.78145 | 1951 ft | 166 kts | 56° |
| 2026-05-07 19:59 | 39.57136 | 2.79354 | 2876 ft | 161 kts | 57° |
| 2026-05-07 19:59 | 39.57794 | 2.80660 | 3255 ft | 190 kts | 59° |
| 2026-05-07 19:59 | 39.58538 | 2.82198 | 3352 ft | 204 kts | 59° |
| 2026-05-07 19:59 | 39.59368 | 2.83922 | 3227 ft | 247 kts | 59° |
| 2026-05-07 20:00 | 39.60259 | 2.85903 | 4165 ft | 247 kts | 60° |
| 2026-05-07 20:00 | 39.61095 | 2.87700 | 5891 ft | 218 kts | 59° |
| 2026-05-07 20:00 | 39.61893 | 2.89339 | 7009 ft | 219 kts | 58° |
| 2026-05-07 20:00 | 39.62707 | 2.91032 | 7850 ft | 225 kts | 59° |
| 2026-05-07 20:01 | 39.63621 | 2.92684 | 8834 ft | 232 kts | 43° |
| 2026-05-07 20:01 | 39.65139 | 2.93385 | 9742 ft | 241 kts | 1° |
| 2026-05-07 20:01 | 39.66724 | 2.92676 | 10563 ft | 248 kts | 323° |
| 2026-05-07 20:01 | 39.67465 | 2.91506 | 11085 ft | 252 kts | 297° |
| 2026-05-07 20:02 | 39.67761 | 2.88532 | 12165 ft | 254 kts | 273° |
| 2026-05-07 20:02 | 39.67891 | 2.86983 | 12702 ft | 257 kts | 277° |
| 2026-05-07 20:02 | 39.68129 | 2.84653 | 13461 ft | 263 kts | 277° |
| 2026-05-07 20:02 | 39.68358 | 2.82277 | 14195 ft | 268 kts | 276° |
| 2026-05-07 20:03 | 39.68527 | 2.79862 | 14958 ft | 269 kts | 273° |
| 2026-05-07 20:03 | 39.68607 | 2.77413 | 15667 ft | 274 kts | 270° |
| 2026-05-07 20:03 | 39.68712 | 2.74918 | 16257 ft | 286 kts | 279° |
| 2026-05-07 20:03 | 39.69358 | 2.72348 | 16376 ft | 314 kts | 291° |
| 2026-05-07 20:04 | 39.70318 | 2.69659 | 16481 ft | 341 kts | 296° |
| 2026-05-07 20:04 | 39.71381 | 2.66771 | 16549 ft | 367 kts | 294° |
| 2026-05-07 20:04 | 39.72421 | 2.63631 | 16623 ft | 389 kts | 292° |
| 2026-05-07 20:04 | 39.73473 | 2.60351 | 17172 ft | 395 kts | 292° |
| 2026-05-07 20:05 | 39.74576 | 2.57075 | 17878 ft | 398 kts | 293° |
| 2026-05-07 20:05 | 39.75710 | 2.53779 | 18496 ft | 402 kts | 292° |
| 2026-05-07 20:05 | 39.76833 | 2.50429 | 19130 ft | 405 kts | 292° |
| 2026-05-07 20:05 | 39.77946 | 2.47053 | 19763 ft | 408 kts | 291° |
| 2026-05-07 20:06 | 39.79078 | 2.43659 | 20479 ft | 410 kts | 291° |
| 2026-05-07 20:06 | 39.80227 | 2.40242 | 21089 ft | 415 kts | 291° |
| 2026-05-07 20:06 | 39.81306 | 2.36810 | 21630 ft | 417 kts | 285° |
| 2026-05-07 20:06 | 39.81871 | 2.33113 | 22239 ft | 416 kts | 272° |
| 2026-05-07 20:07 | 39.81855 | 2.29372 | 22861 ft | 414 kts | 260° |
| 2026-05-07 20:07 | 39.81263 | 2.25710 | 23406 ft | 416 kts | 251° |
| 2026-05-07 20:07 | 39.80402 | 2.22097 | 23904 ft | 420 kts | 250° |
| 2026-05-07 20:07 | 39.79546 | 2.18469 | 24461 ft | 422 kts | 250° |
| 2026-05-07 20:08 | 39.78693 | 2.14808 | 25000 ft | 424 kts | 250° |
| 2026-05-07 20:08 | 39.77830 | 2.11134 | 25548 ft | 425 kts | 250° |
| 2026-05-07 20:08 | 39.76955 | 2.07445 | 26068 ft | 428 kts | 250° |
| 2026-05-07 20:08 | 39.76076 | 2.03738 | 26585 ft | 431 kts | 251° |
| 2026-05-07 20:09 | 39.75193 | 2.00001 | 27110 ft | 433 kts | 251° |
| 2026-05-07 20:09 | 39.74304 | 1.96246 | 27629 ft | 436 kts | 251° |
| 2026-05-07 20:09 | 39.73406 | 1.92470 | 28152 ft | 439 kts | 251° |
| 2026-05-07 20:10 | 39.71582 | 1.84812 | 29017 ft | 449 kts | 250° |
| 2026-05-07 20:10 | 39.70656 | 1.80928 | 29536 ft | 451 kts | 250° |
| 2026-05-07 20:10 | 39.69722 | 1.77020 | 29999 ft | 455 kts | 250° |
| 2026-05-07 20:10 | 39.68778 | 1.73083 | 30456 ft | 457 kts | 250° |
| 2026-05-07 20:11 | 39.67835 | 1.69154 | 31020 ft | 455 kts | 251° |
| 2026-05-07 20:11 | 39.66903 | 1.65267 | 31868 ft | 446 kts | 252° |
| 2026-05-07 20:11 | 39.65986 | 1.61461 | 32751 ft | 437 kts | 252° |
| 2026-05-07 20:11 | 39.65086 | 1.57733 | 33602 ft | 429 kts | 253° |
| 2026-05-07 20:12 | 39.64201 | 1.54073 | 34358 ft | 422 kts | 253° |
| 2026-05-07 20:12 | 39.63329 | 1.50460 | 34987 ft | 418 kts | 254° |
| 2026-05-07 20:12 | 39.62462 | 1.46878 | 35588 ft | 415 kts | 254° |
| 2026-05-07 20:12 | 39.61597 | 1.43314 | 36113 ft | 414 kts | 254° |
| 2026-05-07 20:13 | 39.60754 | 1.39752 | 36629 ft | 412 kts | 256° |
| 2026-05-07 20:13 | 39.60228 | 1.36107 | 37162 ft | 410 kts | 264° |
| 2026-05-07 20:13 | 39.60013 | 1.32475 | 37708 ft | 409 kts | 266° |
| 2026-05-07 20:13 | 39.59813 | 1.28805 | 38264 ft | 408 kts | 266° |
| 2026-05-07 20:14 | 39.59597 | 1.25140 | 38778 ft | 407 kts | 265° |
| 2026-05-07 20:14 | 39.59388 | 1.21480 | 39186 ft | 407 kts | 265° |
| 2026-05-07 20:14 | 39.59186 | 1.17813 | 39560 ft | 409 kts | 265° |
| 2026-05-07 20:14 | 39.58979 | 1.14134 | 39945 ft | 410 kts | 265° |
| 2026-05-07 20:15 | 39.58766 | 1.10453 | 40367 ft | 410 kts | 265° |
| 2026-05-07 20:15 | 39.58553 | 1.06769 | 40796 ft | 410 kts | 265° |
| 2026-05-07 20:15 | 39.58340 | 1.03084 | 41201 ft | 411 kts | 265° |
| 2026-05-07 20:15 | 39.58126 | 0.99389 | 41610 ft | 411 kts | 265° |
| 2026-05-07 20:16 | 39.57909 | 0.95692 | 42007 ft | 412 kts | 264° |
| 2026-05-07 20:16 | 39.57691 | 0.91988 | 42404 ft | 412 kts | 264° |
| 2026-05-07 20:16 | 39.57472 | 0.88283 | 42791 ft | 413 kts | 264° |
| 2026-05-07 20:16 | 39.57252 | 0.84573 | 43199 ft | 413 kts | 264° |
| 2026-05-07 20:17 | 39.57030 | 0.80863 | 43578 ft | 413 kts | 264° |
| 2026-05-07 20:17 | 39.56807 | 0.77147 | 43950 ft | 414 kts | 264° |
| 2026-05-07 20:17 | 39.56581 | 0.73415 | 44194 ft | 418 kts | 264° |
| 2026-05-07 20:17 | 39.56512 | 0.69625 | 44344 ft | 423 kts | 270° |
| 2026-05-07 20:18 | 39.56628 | 0.65814 | 44713 ft | 423 kts | 270° |
| 2026-05-07 20:18 | 39.56713 | 0.62000 | 44993 ft | 425 kts | 269° |
| 2026-05-07 20:18 | 39.56791 | 0.58132 | 44971 ft | 433 kts | 269° |
| 2026-05-07 20:19 | 39.56988 | 0.50195 | 44987 ft | 448 kts | 270° |
| 2026-05-07 20:19 | 39.57171 | 0.42003 | 44990 ft | 461 kts | 270° |
| 2026-05-07 20:20 | 39.57359 | 0.33613 | 44979 ft | 471 kts | 270° |
| 2026-05-07 20:20 | 39.57542 | 0.25030 | 44989 ft | 481 kts | 270° |
| 2026-05-07 20:21 | 39.57724 | 0.16284 | 44989 ft | 489 kts | 270° |
| 2026-05-07 20:21 | 39.57900 | 0.07424 | 44989 ft | 494 kts | 270° |
| 2026-05-07 20:22 | 39.58071 | -0.01479 | 44994 ft | 494 kts | 270° |
| 2026-05-07 20:22 | 39.58235 | -0.10399 | 44988 ft | 495 kts | 270° |
| 2026-05-07 20:23 | 39.58391 | -0.19271 | 44986 ft | 496 kts | 270° |
| 2026-05-07 20:23 | 39.58542 | -0.28198 | 44985 ft | 495 kts | 270° |
| 2026-05-07 20:24 | 39.58686 | -0.37128 | 44984 ft | 495 kts | 270° |
| 2026-05-07 20:24 | 39.58823 | -0.46058 | 44985 ft | 496 kts | 270° |
| 2026-05-07 20:25 | 39.58953 | -0.54988 | 44989 ft | 496 kts | 270° |
| 2026-05-07 20:25 | 39.59076 | -0.63920 | 44990 ft | 495 kts | 270° |
| 2026-05-07 20:26 | 39.59193 | -0.72850 | 44992 ft | 495 kts | 270° |
| 2026-05-07 20:26 | 39.59302 | -0.81783 | 45005 ft | 497 kts | 270° |
| 2026-05-07 20:27 | 39.59405 | -0.90742 | 45008 ft | 497 kts | 270° |
| 2026-05-07 20:27 | 39.59501 | -0.99710 | 44989 ft | 497 kts | 270° |
| 2026-05-07 20:28 | 39.59591 | -1.08671 | 44972 ft | 497 kts | 270° |
| 2026-05-07 20:28 | 39.59673 | -1.17633 | 44974 ft | 497 kts | 269° |
| 2026-05-07 20:29 | 39.59749 | -1.26590 | 44978 ft | 497 kts | 269° |
| 2026-05-07 20:29 | 39.59817 | -1.35548 | 44985 ft | 497 kts | 269° |
| 2026-05-07 20:30 | 39.59879 | -1.44507 | 44993 ft | 497 kts | 269° |
| 2026-05-07 20:30 | 39.59934 | -1.53460 | 45016 ft | 496 kts | 269° |
| 2026-05-07 20:31 | 39.59982 | -1.62310 | 45018 ft | 489 kts | 269° |
| 2026-05-07 20:31 | 39.60022 | -1.71146 | 45017 ft | 491 kts | 269° |
| 2026-05-07 20:32 | 39.60056 | -1.80014 | 45017 ft | 492 kts | 269° |
| 2026-05-07 20:32 | 39.60083 | -1.88879 | 45012 ft | 492 kts | 269° |
| 2026-05-07 20:33 | 39.60105 | -1.97685 | 45012 ft | 485 kts | 269° |
| 2026-05-07 20:33 | 39.60117 | -2.06448 | 45008 ft | 487 kts | 269° |
| 2026-05-07 20:34 | 39.60125 | -2.15240 | 45001 ft | 487 kts | 269° |
| 2026-05-07 20:34 | 39.60125 | -2.24020 | 45002 ft | 487 kts | 268° |
| 2026-05-07 20:35 | 39.60120 | -2.32740 | 44991 ft | 486 kts | 268° |
| 2026-05-07 20:35 | 39.60107 | -2.41502 | 44991 ft | 486 kts | 268° |
| 2026-05-07 20:36 | 39.60088 | -2.50269 | 44989 ft | 486 kts | 268° |
| 2026-05-07 20:36 | 39.60062 | -2.59033 | 44992 ft | 486 kts | 268° |
| 2026-05-07 20:37 | 39.60030 | -2.67798 | 44979 ft | 486 kts | 268° |
| 2026-05-07 20:37 | 39.59991 | -2.76574 | 44973 ft | 487 kts | 268° |
| 2026-05-07 20:38 | 39.59945 | -2.85347 | 44974 ft | 487 kts | 268° |
| 2026-05-07 20:38 | 39.59893 | -2.94121 | 44963 ft | 487 kts | 268° |
| 2026-05-07 20:39 | 39.59835 | -3.02893 | 44962 ft | 486 kts | 268° |
| 2026-05-07 20:39 | 39.59770 | -3.11660 | 44956 ft | 486 kts | 268° |
| 2026-05-07 20:40 | 39.59698 | -3.20429 | 44957 ft | 486 kts | 268° |
| 2026-05-07 20:40 | 39.59619 | -3.29200 | 44955 ft | 487 kts | 268° |
| 2026-05-07 20:41 | 39.59534 | -3.37979 | 44954 ft | 487 kts | 268° |
| 2026-05-07 20:41 | 39.59442 | -3.46747 | 44946 ft | 487 kts | 268° |
| 2026-05-07 20:42 | 39.59344 | -3.55521 | 44940 ft | 487 kts | 268° |
| 2026-05-07 20:42 | 39.59239 | -3.64294 | 44940 ft | 487 kts | 268° |
| 2026-05-07 20:43 | 39.59128 | -3.73068 | 44936 ft | 487 kts | 268° |
| 2026-05-07 20:43 | 39.59010 | -3.81841 | 44936 ft | 487 kts | 268° |
| 2026-05-07 20:44 | 39.58885 | -3.90609 | 44932 ft | 486 kts | 268° |
| 2026-05-07 20:44 | 39.58754 | -3.99379 | 44935 ft | 487 kts | 268° |
| 2026-05-07 20:45 | 39.58616 | -4.08143 | 44934 ft | 486 kts | 268° |
| 2026-05-07 20:45 | 39.58472 | -4.16905 | 44931 ft | 486 kts | 267° |
| 2026-05-07 20:46 | 39.58322 | -4.25613 | 44935 ft | 486 kts | 267° |
| 2026-05-07 20:46 | 39.58164 | -4.34375 | 44928 ft | 486 kts | 267° |
| 2026-05-07 20:47 | 39.58000 | -4.43140 | 44922 ft | 486 kts | 267° |
| 2026-05-07 20:47 | 39.57831 | -4.51909 | 44921 ft | 487 kts | 268° |
| 2026-05-07 20:48 | 39.57652 | -4.60670 | 44917 ft | 484 kts | 267° |
| 2026-05-07 20:48 | 39.57469 | -4.69408 | 44924 ft | 485 kts | 267° |
| 2026-05-07 20:49 | 39.57312 | -4.76670 | 44916 ft | 485 kts | 267° |
| 2026-05-07 20:49 | 39.57116 | -4.85409 | 44912 ft | 485 kts | 267° |
| 2026-05-07 20:50 | 39.56915 | -4.94150 | 44901 ft | 485 kts | 267° |
| 2026-05-07 20:50 | 39.56705 | -5.02888 | 44903 ft | 485 kts | 266° |
| 2026-05-07 20:51 | 39.56491 | -5.11632 | 44897 ft | 485 kts | 266° |
| 2026-05-07 20:51 | 39.56269 | -5.20367 | 44897 ft | 485 kts | 266° |
| 2026-05-07 20:52 | 39.56041 | -5.29116 | 44894 ft | 486 kts | 266° |
| 2026-05-07 20:52 | 39.55806 | -5.37867 | 44898 ft | 485 kts | 266° |
| 2026-05-07 20:53 | 39.55564 | -5.46601 | 44898 ft | 485 kts | 266° |
| 2026-05-07 20:53 | 39.55317 | -5.55338 | 44895 ft | 485 kts | 266° |
| 2026-05-07 20:54 | 39.55063 | -5.64076 | 44885 ft | 485 kts | 266° |
| 2026-05-07 20:54 | 39.54802 | -5.72809 | 44891 ft | 485 kts | 266° |
| 2026-05-07 20:55 | 39.54535 | -5.81537 | 44893 ft | 485 kts | 266° |
| 2026-05-07 20:55 | 39.54261 | -5.90262 | 44893 ft | 485 kts | 266° |
| 2026-05-07 20:56 | 39.53982 | -5.98978 | 44889 ft | 477 kts | 266° |
| 2026-05-07 20:56 | 39.53847 | -6.03173 | 44869 ft | 458 kts | 266° |
| 2026-05-07 20:56 | 39.53710 | -6.07277 | 44869 ft | 458 kts | 266° |
| 2026-05-07 20:57 | 39.53431 | -6.15519 | 44875 ft | 462 kts | 266° |
| 2026-05-07 20:57 | 39.53148 | -6.23841 | 44882 ft | 463 kts | 265° |
| 2026-05-07 20:58 | 39.52855 | -6.32169 | 44886 ft | 463 kts | 265° |
| 2026-05-07 20:58 | 39.52412 | -6.40477 | 44867 ft | 462 kts | 259° |
| 2026-05-07 20:59 | 39.50568 | -6.48314 | 44228 ft | 447 kts | 245° |
| 2026-05-07 20:59 | 39.49196 | -6.51858 | 43651 ft | 435 kts | 243° |
| 2026-05-07 20:59 | 39.47850 | -6.55308 | 43091 ft | 424 kts | 243° |
| 2026-05-07 20:59 | 39.46550 | -6.58678 | 42537 ft | 413 kts | 243° |
| 2026-05-07 21:00 | 39.45277 | -6.61961 | 41999 ft | 403 kts | 243° |
| 2026-05-07 21:00 | 39.44025 | -6.65160 | 41477 ft | 395 kts | 243° |
| 2026-05-07 21:00 | 39.42793 | -6.68312 | 40959 ft | 391 kts | 243° |
| 2026-05-07 21:00 | 39.41573 | -6.71442 | 40453 ft | 389 kts | 243° |
| 2026-05-07 21:01 | 39.40358 | -6.74555 | 39943 ft | 387 kts | 243° |
| 2026-05-07 21:01 | 39.39145 | -6.77654 | 39430 ft | 385 kts | 243° |
| 2026-05-07 21:01 | 39.37940 | -6.80729 | 38912 ft | 382 kts | 242° |
| 2026-05-07 21:01 | 39.36747 | -6.83772 | 38386 ft | 377 kts | 242° |
| 2026-05-07 21:02 | 39.35560 | -6.86797 | 37877 ft | 380 kts | 242° |
| 2026-05-07 21:02 | 39.34354 | -6.89864 | 37384 ft | 385 kts | 242° |
| 2026-05-07 21:02 | 39.33135 | -6.92964 | 36868 ft | 389 kts | 242° |
| 2026-05-07 21:02 | 39.31907 | -6.96086 | 36345 ft | 391 kts | 242° |
| 2026-05-07 21:03 | 39.30668 | -6.99229 | 35846 ft | 394 kts | 242° |
| 2026-05-07 21:03 | 39.29420 | -7.02393 | 35324 ft | 397 kts | 242° |
| 2026-05-07 21:03 | 39.28162 | -7.05578 | 34808 ft | 400 kts | 242° |
| 2026-05-07 21:03 | 39.26893 | -7.08788 | 34263 ft | 403 kts | 242° |
| 2026-05-07 21:04 | 39.25615 | -7.12017 | 33714 ft | 406 kts | 242° |
| 2026-05-07 21:04 | 39.24327 | -7.15271 | 33174 ft | 410 kts | 242° |
| 2026-05-07 21:04 | 39.23039 | -7.18520 | 32642 ft | 414 kts | 242° |
| 2026-05-07 21:04 | 39.21721 | -7.21839 | 32086 ft | 418 kts | 242° |
| 2026-05-07 21:05 | 39.20386 | -7.25196 | 31541 ft | 423 kts | 242° |
| 2026-05-07 21:05 | 39.19039 | -7.28583 | 30980 ft | 427 kts | 242° |
| 2026-05-07 21:05 | 39.17673 | -7.32013 | 30416 ft | 433 kts | 242° |
| 2026-05-07 21:05 | 39.16301 | -7.35454 | 29830 ft | 431 kts | 242° |
| 2026-05-07 21:06 | 39.14937 | -7.38871 | 29247 ft | 427 kts | 242° |
| 2026-05-07 21:06 | 39.13585 | -7.42256 | 28690 ft | 423 kts | 242° |
| 2026-05-07 21:06 | 39.12242 | -7.45612 | 28137 ft | 420 kts | 242° |
| 2026-05-07 21:06 | 39.10907 | -7.48945 | 27579 ft | 417 kts | 241° |
| 2026-05-07 21:07 | 39.09588 | -7.52233 | 27035 ft | 412 kts | 241° |
| 2026-05-07 21:07 | 39.08278 | -7.55497 | 26495 ft | 409 kts | 241° |
| 2026-05-07 21:07 | 39.06967 | -7.58728 | 25949 ft | 405 kts | 239° |
| 2026-05-07 21:07 | 39.05327 | -7.61656 | 25390 ft | 403 kts | 230° |
| 2026-05-07 21:08 | 39.03503 | -7.64372 | 24874 ft | 400 kts | 227° |
| 2026-05-07 21:08 | 39.01696 | -7.67080 | 24376 ft | 398 kts | 230° |
| 2026-05-07 21:08 | 39.00024 | -7.69903 | 23892 ft | 396 kts | 232° |
| 2026-05-07 21:08 | 38.98384 | -7.72738 | 23386 ft | 394 kts | 231° |
| 2026-05-07 21:09 | 38.96689 | -7.75482 | 22824 ft | 390 kts | 229° |
| 2026-05-07 21:09 | 38.94984 | -7.78180 | 22270 ft | 387 kts | 230° |
| 2026-05-07 21:09 | 38.93324 | -7.80890 | 21733 ft | 385 kts | 230° |
| 2026-05-07 21:09 | 38.91692 | -7.83595 | 21209 ft | 382 kts | 230° |
| 2026-05-07 21:10 | 38.90054 | -7.86267 | 20706 ft | 379 kts | 230° |
| 2026-05-07 21:10 | 38.88418 | -7.88907 | 20216 ft | 377 kts | 230° |
| 2026-05-07 21:10 | 38.86798 | -7.91535 | 19736 ft | 374 kts | 230° |
| 2026-05-07 21:10 | 38.85193 | -7.94152 | 19259 ft | 372 kts | 230° |
| 2026-05-07 21:11 | 38.83603 | -7.96737 | 18803 ft | 368 kts | 230° |
| 2026-05-07 21:11 | 38.82021 | -7.99300 | 18352 ft | 366 kts | 230° |
| 2026-05-07 21:11 | 38.78880 | -8.04385 | 17348 ft | 362 kts | 230° |
| 2026-05-07 21:12 | 38.77324 | -8.06904 | 16861 ft | 360 kts | 230° |
| 2026-05-07 21:12 | 38.75774 | -8.09410 | 16382 ft | 358 kts | 230° |
| 2026-05-07 21:12 | 38.74230 | -8.11904 | 15909 ft | 356 kts | 230° |
| 2026-05-07 21:12 | 38.72691 | -8.14386 | 15452 ft | 355 kts | 230° |
| 2026-05-07 21:13 | 38.71161 | -8.16855 | 14985 ft | 353 kts | 230° |
| 2026-05-07 21:13 | 38.69636 | -8.19314 | 14560 ft | 352 kts | 229° |
| 2026-05-07 21:13 | 38.68116 | -8.21761 | 14136 ft | 351 kts | 229° |
| 2026-05-07 21:13 | 38.66601 | -8.24199 | 13711 ft | 350 kts | 229° |
| 2026-05-07 21:14 | 38.65094 | -8.26622 | 13240 ft | 347 kts | 229° |
| 2026-05-07 21:14 | 38.63597 | -8.29028 | 12776 ft | 344 kts | 229° |
| 2026-05-07 21:14 | 38.62106 | -8.31421 | 12328 ft | 342 kts | 229° |
| 2026-05-07 21:14 | 38.60626 | -8.33796 | 11885 ft | 341 kts | 229° |
| 2026-05-07 21:15 | 38.59155 | -8.36155 | 11459 ft | 338 kts | 229° |
| 2026-05-07 21:15 | 38.57701 | -8.38484 | 11037 ft | 330 kts | 229° |
| 2026-05-07 21:15 | 38.56322 | -8.40697 | 10614 ft | 307 kts | 229° |
| 2026-05-07 21:15 | 38.55029 | -8.42770 | 10182 ft | 290 kts | 229° |
| 2026-05-07 21:16 | 38.53795 | -8.44738 | 9737 ft | 279 kts | 228° |
| 2026-05-07 21:16 | 38.52609 | -8.46629 | 9259 ft | 274 kts | 228° |
| 2026-05-07 21:16 | 38.51425 | -8.48519 | 8797 ft | 271 kts | 229° |
| 2026-05-07 21:16 | 38.50256 | -8.50385 | 8348 ft | 269 kts | 229° |
| 2026-05-07 21:17 | 38.49090 | -8.52244 | 7890 ft | 267 kts | 229° |
| 2026-05-07 21:17 | 38.47931 | -8.54092 | 7468 ft | 266 kts | 229° |
| 2026-05-07 21:17 | 38.46778 | -8.55928 | 7050 ft | 264 kts | 229° |
| 2026-05-07 21:17 | 38.45633 | -8.57751 | 6642 ft | 263 kts | 229° |
| 2026-05-07 21:18 | 38.44492 | -8.59568 | 6225 ft | 261 kts | 229° |
| 2026-05-07 21:18 | 38.43381 | -8.61336 | 5934 ft | 249 kts | 230° |
| 2026-05-07 21:18 | 38.42311 | -8.63038 | 5942 ft | 247 kts | 229° |
| 2026-05-07 21:18 | 38.41233 | -8.64748 | 5947 ft | 248 kts | 230° |
| 2026-05-07 21:19 | 38.40153 | -8.66463 | 5949 ft | 248 kts | 230° |
| 2026-05-07 21:19 | 38.39073 | -8.68179 | 5953 ft | 248 kts | 230° |
| 2026-05-07 21:19 | 38.37993 | -8.69891 | 5954 ft | 248 kts | 230° |
| 2026-05-07 21:19 | 38.36910 | -8.71608 | 5955 ft | 249 kts | 230° |
| 2026-05-07 21:20 | 38.35835 | -8.73312 | 5958 ft | 246 kts | 230° |
| 2026-05-07 21:20 | 38.34760 | -8.75016 | 5958 ft | 246 kts | 230° |
| 2026-05-07 21:20 | 38.33685 | -8.76718 | 5959 ft | 247 kts | 230° |
| 2026-05-07 21:20 | 38.32612 | -8.78415 | 5955 ft | 247 kts | 230° |
| 2026-05-07 21:21 | 38.31531 | -8.80125 | 5949 ft | 247 kts | 230° |
| 2026-05-07 21:21 | 38.30447 | -8.81837 | 5948 ft | 248 kts | 230° |
| 2026-05-07 21:21 | 38.29364 | -8.83549 | 5948 ft | 248 kts | 230° |
| 2026-05-07 21:21 | 38.28282 | -8.85257 | 5947 ft | 248 kts | 230° |
| 2026-05-07 21:22 | 38.27199 | -8.86967 | 5950 ft | 248 kts | 230° |
| 2026-05-07 21:22 | 38.26117 | -8.88673 | 5950 ft | 248 kts | 230° |
| 2026-05-07 21:22 | 38.25034 | -8.90379 | 5949 ft | 249 kts | 230° |
| 2026-05-07 21:22 | 38.23952 | -8.92085 | 5948 ft | 249 kts | 230° |
| 2026-05-07 21:23 | 38.22884 | -8.93767 | 5946 ft | 248 kts | 230° |
| 2026-05-07 21:23 | 38.21880 | -8.95540 | 5905 ft | 249 kts | 242° |
| 2026-05-07 21:23 | 38.21522 | -8.97732 | 5927 ft | 262 kts | 268° |
| 2026-05-07 21:23 | 38.21817 | -9.00031 | 5965 ft | 265 kts | 279° |
| 2026-05-07 21:24 | 38.22212 | -9.02334 | 5966 ft | 267 kts | 279° |
| 2026-05-07 21:24 | 38.22587 | -9.04648 | 5960 ft | 267 kts | 279° |
| 2026-05-07 21:24 | 38.22953 | -9.06971 | 5860 ft | 270 kts | 279° |
| 2026-05-07 21:24 | 38.23325 | -9.09297 | 5619 ft | 267 kts | 281° |
| 2026-05-07 21:25 | 38.23697 | -9.11607 | 5188 ft | 265 kts | 280° |
| 2026-05-07 21:25 | 38.24058 | -9.13862 | 4723 ft | 258 kts | 281° |
| 2026-05-07 21:25 | 38.24412 | -9.16081 | 4253 ft | 258 kts | 281° |
| 2026-05-07 21:25 | 38.24766 | -9.18299 | 3790 ft | 255 kts | 282° |
| 2026-05-07 21:26 | 38.25514 | -9.20303 | 3203 ft | 253 kts | 311° |
| 2026-05-07 21:26 | 38.26971 | -9.21502 | 2677 ft | 249 kts | 336° |
| 2026-05-07 21:26 | 38.28648 | -9.22002 | 2229 ft | 246 kts | 349° |
| 2026-05-07 21:26 | 38.30298 | -9.22368 | 1952 ft | 235 kts | 348° |
| 2026-05-07 21:27 | 38.31875 | -9.22810 | 2025 ft | 228 kts | 345° |
| 2026-05-07 21:27 | 38.33457 | -9.23277 | 2029 ft | 237 kts | 346° |
| 2026-05-07 21:27 | 38.35050 | -9.23727 | 2028 ft | 237 kts | 347° |
| 2026-05-07 21:27 | 38.36649 | -9.24172 | 2032 ft | 233 kts | 346° |
| 2026-05-07 21:28 | 38.38243 | -9.24620 | 2030 ft | 236 kts | 346° |
| 2026-05-07 21:28 | 38.39817 | -9.25065 | 2030 ft | 232 kts | 347° |
| 2026-05-07 21:28 | 38.41433 | -9.25521 | 2027 ft | 234 kts | 346° |
| 2026-05-07 21:28 | 38.43043 | -9.25975 | 2030 ft | 237 kts | 346° |
| 2026-05-07 21:29 | 38.44647 | -9.26427 | 2024 ft | 236 kts | 347° |
| 2026-05-07 21:29 | 38.46247 | -9.26879 | 2026 ft | 235 kts | 346° |
| 2026-05-07 21:29 | 38.47830 | -9.27326 | 2031 ft | 236 kts | 346° |
| 2026-05-07 21:29 | 38.49429 | -9.27778 | 2021 ft | 235 kts | 346° |
| 2026-05-07 21:30 | 38.51031 | -9.28231 | 2023 ft | 236 kts | 346° |
| 2026-05-07 21:30 | 38.52622 | -9.28681 | 2022 ft | 234 kts | 346° |
| 2026-05-07 21:30 | 38.54216 | -9.29132 | 2021 ft | 237 kts | 347° |
| 2026-05-07 21:30 | 38.55819 | -9.29585 | 2027 ft | 237 kts | 346° |
| 2026-05-07 21:31 | 38.57327 | -9.30014 | 2001 ft | 209 kts | 346° |
| 2026-05-07 21:31 | 38.58712 | -9.30545 | 2016 ft | 211 kts | 342° |
| 2026-05-07 21:31 | 38.60093 | -9.31024 | 2008 ft | 196 kts | 344° |
| 2026-05-07 21:31 | 38.61311 | -9.31446 | 2001 ft | 169 kts | 343° |
| 2026-05-07 21:32 | 38.62419 | -9.31848 | 1999 ft | 164 kts | 343° |
| 2026-05-07 21:32 | 38.63396 | -9.32203 | 1985 ft | 131 kts | 343° |
| 2026-05-07 21:32 | 38.64264 | -9.32519 | 1836 ft | 128 kts | 343° |
| 2026-05-07 21:32 | 38.65110 | -9.32827 | 1688 ft | 127 kts | 343° |
| 2026-05-07 21:33 | 38.65950 | -9.33133 | 1513 ft | 124 kts | 343° |
| 2026-05-07 21:33 | 38.66778 | -9.33435 | 1360 ft | 124 kts | 342° |
| 2026-05-07 21:33 | 38.67620 | -9.33741 | 1176 ft | 127 kts | 342° |
| 2026-05-07 21:33 | 38.68466 | -9.34051 | 1017 ft | 125 kts | 342° |
| 2026-05-07 21:34 | 38.69308 | -9.34395 | 826 ft | 128 kts | 341° |
| 2026-05-07 21:34 | 38.70159 | -9.34678 | 645 ft | 123 kts | 345° |
| 2026-05-07 21:34 | 38.71006 | -9.34971 | 474 ft | 126 kts | 342° |
| 2026-05-07 21:34 | 38.71822 | -9.35274 | 307 ft | 120 kts | 342° |
| 2026-05-07 21:35 | 38.72545 | -9.35542 | 308 ft | 90 kts | 345° |
| 2026-05-07 21:35 | 38.72929 | -9.35667 | 330 ft | 17 kts | 347° |
| 2026-05-07 21:35 | 38.72947 | -9.35682 | 329 ft | 1 kts | 288° |
| 2026-05-07 21:35 | 38.72951 | -9.35691 | 331 ft | 1 kts | 299° |
| 2026-05-07 21:36 | 38.72967 | -9.35692 | 330 ft | 4 kts | 32° |
| 2026-05-07 21:36 | 38.72966 | -9.35672 | 332 ft | 2 kts | 132° |
| 2026-05-07 21:36 | 38.72954 | -9.35666 | 331 ft | 4 kts | 165° |
| 2026-05-07 21:36 | 38.72918 | -9.35657 | 329 ft | 7 kts | 170° |
| 2026-05-07 21:37 | 38.72813 | -9.35627 | 322 ft | 17 kts | 166° |
| 2026-05-07 21:37 | 38.72664 | -9.35577 | 313 ft | 26 kts | 164° |
| 2026-05-07 21:37 | 38.72482 | -9.35513 | 305 ft | 28 kts | 165° |
| 2026-05-07 21:37 | 38.72349 | -9.35509 | 300 ft | 11 kts | 245° |
| 2026-05-07 21:38 | 38.72327 | -9.35590 | 297 ft | 9 kts | 253° |